sensor_id;sensor_type;location;lat;lon;timestamp;pressure;altitude;pressure_sealevel;temperature;humidity
13414;BME280;6778;48.136;11.386;2023-04-02T00:01:12;94571.63;;;9.44;68.08
13414;BME280;6778;48.136;11.386;2023-04-02T00:04:16;94561.75;;;9.46;68.09
13414;BME280;6778;48.136;11.386;2023-04-02T00:06:50;94558.00;;;9.42;68.13
13414;BME280;6778;48.136;11.386;2023-04-02T00:09:29;94559.47;;;9.38;68.04
13414;BME280;6778;48.136;11.386;2023-04-02T00:12:15;94565.19;;;9.35;68.33
13414;BME280;6778;48.136;11.386;2023-04-02T00:14:52;94567.56;;;9.37;68.29
13414;BME280;6778;48.136;11.386;2023-04-02T00:17:24;94571.75;;;9.38;68.26
13414;BME280;6778;48.136;11.386;2023-04-02T00:19:57;94565.97;;;9.36;68.40
13414;BME280;6778;48.136;11.386;2023-04-02T00:22:32;94564.59;;;9.33;68.44
13414;BME280;6778;48.136;11.386;2023-04-02T00:25:12;94567.09;;;9.28;68.31
13414;BME280;6778;48.136;11.386;2023-04-02T00:27:42;94567.91;;;9.28;68.31
13414;BME280;6778;48.136;11.386;2023-04-02T00:30:13;94572.34;;;9.28;68.38
13414;BME280;6778;48.136;11.386;2023-04-02T00:32:44;94562.75;;;9.34;68.35
13414;BME280;6778;48.136;11.386;2023-04-02T00:35:20;94566.97;;;9.35;68.30
13414;BME280;6778;48.136;11.386;2023-04-02T00:37:52;94576.31;;;9.30;68.24
13414;BME280;6778;48.136;11.386;2023-04-02T00:40:28;94567.44;;;9.32;68.26
13414;BME280;6778;48.136;11.386;2023-04-02T00:42:59;94565.50;;;9.27;68.20
13414;BME280;6778;48.136;11.386;2023-04-02T00:45:35;94572.75;;;9.25;68.39
13414;BME280;6778;48.136;11.386;2023-04-02T00:48:22;94578.78;;;9.25;68.45
13414;BME280;6778;48.136;11.386;2023-04-02T00:50:57;94572.53;;;9.26;68.17
13414;BME280;6778;48.136;11.386;2023-04-02T00:53:31;94576.19;;;9.25;68.42
13414;BME280;6778;48.136;11.386;2023-04-02T00:56:13;94571.97;;;9.24;68.21
13414;BME280;6778;48.136;11.386;2023-04-02T00:58:51;94573.13;;;9.28;68.32
13414;BME280;6778;48.136;11.386;2023-04-02T01:01:24;94571.06;;;9.30;68.29
13414;BME280;6778;48.136;11.386;2023-04-02T01:03:59;94571.88;;;9.31;68.17
13414;BME280;6778;48.136;11.386;2023-04-02T01:06:32;94576.72;;;9.27;68.12
13414;BME280;6778;48.136;11.386;2023-04-02T01:09:18;94582.19;;;9.26;68.19
13414;BME280;6778;48.136;11.386;2023-04-02T01:12:18;94584.00;;;9.25;68.33
13414;BME280;6778;48.136;11.386;2023-04-02T01:15:06;94589.00;;;9.27;68.27
13414;BME280;6778;48.136;11.386;2023-04-02T01:18:02;94583.09;;;9.20;68.39
13414;BME280;6778;48.136;11.386;2023-04-02T01:20:52;94588.22;;;9.15;68.43
13414;BME280;6778;48.136;11.386;2023-04-02T01:23:34;94591.41;;;9.17;68.75
13414;BME280;6778;48.136;11.386;2023-04-02T01:26:18;94594.56;;;9.19;68.71
13414;BME280;6778;48.136;11.386;2023-04-02T01:29:06;94587.41;;;9.14;68.76
13414;BME280;6778;48.136;11.386;2023-04-02T01:31:39;94585.38;;;9.16;68.70
13414;BME280;6778;48.136;11.386;2023-04-02T01:34:13;94583.31;;;9.18;68.87
13414;BME280;6778;48.136;11.386;2023-04-02T01:42:47;94588.00;;;9.16;69.08
13414;BME280;6778;48.136;11.386;2023-04-02T01:45:24;94584.78;;;9.14;68.89
13414;BME280;6778;48.136;11.386;2023-04-02T01:47:55;94586.28;;;9.10;69.13
13414;BME280;6778;48.136;11.386;2023-04-02T01:50:28;94593.31;;;9.10;69.13
13414;BME280;6778;48.136;11.386;2023-04-02T01:53:06;94596.16;;;9.08;69.21
13414;BME280;6778;48.136;11.386;2023-04-02T01:55:41;94599.78;;;9.07;69.17
13414;BME280;6778;48.136;11.386;2023-04-02T01:58:18;94604.44;;;9.05;69.39
13414;BME280;6778;48.136;11.386;2023-04-02T02:00:59;94602.84;;;9.04;69.65
13414;BME280;6778;48.136;11.386;2023-04-02T02:03:33;94603.19;;;9.08;69.71
13414;BME280;6778;48.136;11.386;2023-04-02T02:06:05;94601.16;;;9.10;69.52
13414;BME280;6778;48.136;11.386;2023-04-02T02:08:38;94604.19;;;9.07;69.40
13414;BME280;6778;48.136;11.386;2023-04-02T02:11:14;94607.03;;;9.05;69.63
13414;BME280;6778;48.136;11.386;2023-04-02T02:13:45;94618.84;;;9.08;69.59
13414;BME280;6778;48.136;11.386;2023-04-02T02:16:19;94620.09;;;9.05;69.44
13414;BME280;6778;48.136;11.386;2023-04-02T02:18:54;94616.69;;;9.05;69.45
13414;BME280;6778;48.136;11.386;2023-04-02T02:21:35;94620.25;;;9.10;69.56
13414;BME280;6778;48.136;11.386;2023-04-02T02:24:17;94617.84;;;9.09;69.33
13414;BME280;6778;48.136;11.386;2023-04-02T02:26:59;94621.38;;;9.14;69.47
13414;BME280;6778;48.136;11.386;2023-04-02T02:29:36;94617.06;;;9.08;69.15
13414;BME280;6778;48.136;11.386;2023-04-02T02:32:12;94626.00;;;9.00;69.31
13414;BME280;6778;48.136;11.386;2023-04-02T02:34:55;94628.59;;;9.00;69.37
13414;BME280;6778;48.136;11.386;2023-04-02T02:37:36;94639.41;;;9.04;69.73
13414;BME280;6778;48.136;11.386;2023-04-02T02:40:15;94642.34;;;9.08;69.66
13414;BME280;6778;48.136;11.386;2023-04-02T02:42:55;94643.38;;;9.07;69.50
13414;BME280;6778;48.136;11.386;2023-04-02T02:45:30;94636.81;;;9.04;69.51
13414;BME280;6778;48.136;11.386;2023-04-02T02:48:12;94637.81;;;9.03;69.26
13414;BME280;6778;48.136;11.386;2023-04-02T02:50:44;94642.03;;;9.04;69.17
13414;BME280;6778;48.136;11.386;2023-04-02T02:53:18;94647.91;;;8.99;69.06
13414;BME280;6778;48.136;11.386;2023-04-02T02:55:56;94650.53;;;8.99;69.32
13414;BME280;6778;48.136;11.386;2023-04-02T02:58:34;94646.09;;;9.00;69.26
13414;BME280;6778;48.136;11.386;2023-04-02T03:01:15;94657.44;;;8.94;69.26
13414;BME280;6778;48.136;11.386;2023-04-02T03:03:52;94651.63;;;8.92;69.34
13414;BME280;6778;48.136;11.386;2023-04-02T03:06:24;94660.50;;;8.91;69.45
13414;BME280;6778;48.136;11.386;2023-04-02T03:09:12;94664.13;;;8.90;69.65
13414;BME280;6778;48.136;11.386;2023-04-02T03:11:52;94661.53;;;8.90;69.44
13414;BME280;6778;48.136;11.386;2023-04-02T03:14:31;94662.75;;;8.87;69.53
13414;BME280;6778;48.136;11.386;2023-04-02T03:17:12;94662.97;;;8.86;69.51
13414;BME280;6778;48.136;11.386;2023-04-02T03:19:55;94666.97;;;8.88;69.70
13414;BME280;6778;48.136;11.386;2023-04-02T03:22:33;94666.97;;;8.88;69.66
13414;BME280;6778;48.136;11.386;2023-04-02T03:25:21;94664.94;;;8.90;69.68
13414;BME280;6778;48.136;11.386;2023-04-02T03:28:00;94671.16;;;8.89;69.59
13414;BME280;6778;48.136;11.386;2023-04-02T03:30:39;94673.41;;;8.86;69.69
13414;BME280;6778;48.136;11.386;2023-04-02T03:33:19;94673.41;;;8.86;69.65
13414;BME280;6778;48.136;11.386;2023-04-02T03:35:59;94683.06;;;8.85;69.67
13414;BME280;6778;48.136;11.386;2023-04-02T03:38:40;94682.28;;;8.85;69.75
13414;BME280;6778;48.136;11.386;2023-04-02T03:41:18;94683.28;;;8.84;69.62
13414;BME280;6778;48.136;11.386;2023-04-02T03:43:53;94685.91;;;8.84;70.04
13414;BME280;6778;48.136;11.386;2023-04-02T03:46:31;94686.56;;;8.79;69.73
13414;BME280;6778;48.136;11.386;2023-04-02T03:49:10;94696.22;;;8.79;69.85
13414;BME280;6778;48.136;11.386;2023-04-02T03:51:51;94696.44;;;8.77;70.00
13414;BME280;6778;48.136;11.386;2023-04-02T03:54:24;94693.81;;;8.77;70.18
13414;BME280;6778;48.136;11.386;2023-04-02T03:56:54;94694.06;;;8.75;70.29
13414;BME280;6778;48.136;11.386;2023-04-02T03:59:35;94702.09;;;8.74;70.22
13414;BME280;6778;48.136;11.386;2023-04-02T04:02:18;94703.09;;;8.73;70.41
13414;BME280;6778;48.136;11.386;2023-04-02T04:04:56;94709.13;;;8.73;70.35
13414;BME280;6778;48.136;11.386;2023-04-02T04:07:34;94711.16;;;8.71;70.45
13414;BME280;6778;48.136;11.386;2023-04-02T04:10:08;94708.56;;;8.71;70.54
13414;BME280;6778;48.136;11.386;2023-04-02T04:12:47;94707.75;;;8.71;70.63
13414;BME280;6778;48.136;11.386;2023-04-02T04:15:26;94719.22;;;8.70;70.37
13414;BME280;6778;48.136;11.386;2023-04-02T04:18:03;94730.69;;;8.69;70.71
13414;BME280;6778;48.136;11.386;2023-04-02T04:20:48;94730.91;;;8.67;70.75
13414;BME280;6778;48.136;11.386;2023-04-02T04:23:32;94727.47;;;8.67;70.50
13414;BME280;6778;48.136;11.386;2023-04-02T04:26:19;94729.28;;;8.66;70.72
13414;BME280;6778;48.136;11.386;2023-04-02T04:29:08;94732.69;;;8.67;70.64
13414;BME280;6778;48.136;11.386;2023-04-02T04:31:46;94734.97;;;8.63;70.85
13414;BME280;6778;48.136;11.386;2023-04-02T04:34:25;94742.41;;;8.60;70.61
13414;BME280;6778;48.136;11.386;2023-04-02T04:37:01;94740.81;;;8.59;70.77
13414;BME280;6778;48.136;11.386;2023-04-02T04:39:45;94744.22;;;8.59;71.03
13414;BME280;6778;48.136;11.386;2023-04-02T04:42:22;94751.88;;;8.61;70.81
13414;BME280;6778;48.136;11.386;2023-04-02T04:44:59;94749.44;;;8.59;71.00
13414;BME280;6778;48.136;11.386;2023-04-02T04:47:36;94753.69;;;8.60;70.96
13414;BME280;6778;48.136;11.386;2023-04-02T04:50:14;94751.06;;;8.60;70.98
13414;BME280;6778;48.136;11.386;2023-04-02T04:52:47;94760.50;;;8.61;70.79
13414;BME280;6778;48.136;11.386;2023-04-02T04:55:28;94759.78;;;8.54;70.81
13414;BME280;6778;48.136;11.386;2023-04-02T04:58:07;94760.19;;;8.51;70.98
13414;BME280;6778;48.136;11.386;2023-04-02T05:00:55;94754.19;;;8.51;70.78
13414;BME280;6778;48.136;11.386;2023-04-02T05:03:34;94758.38;;;8.52;71.09
13414;BME280;6778;48.136;11.386;2023-04-02T05:06:12;94756.38;;;8.54;70.94
13414;BME280;6778;48.136;11.386;2023-04-02T05:08:48;94761.94;;;8.57;70.97
13414;BME280;6778;48.136;11.386;2023-04-02T05:11:29;94767.59;;;8.54;71.02
13414;BME280;6778;48.136;11.386;2023-04-02T05:14:12;94770.63;;;8.51;71.07
13414;BME280;6778;48.136;11.386;2023-04-02T05:16:52;94777.09;;;8.48;71.05
13414;BME280;6778;48.136;11.386;2023-04-02T05:19:32;94775.50;;;8.47;71.15
13414;BME280;6778;48.136;11.386;2023-04-02T05:22:15;94786.94;;;8.46;70.99
13414;BME280;6778;48.136;11.386;2023-04-02T05:24:58;94792.75;;;8.48;70.97
13414;BME280;6778;48.136;11.386;2023-04-02T05:27:43;94796.72;;;8.51;71.36
13414;BME280;6778;48.136;11.386;2023-04-02T05:33:26;94795.78;;;8.45;71.07
13414;BME280;6778;48.136;11.386;2023-04-02T05:36:03;94806.81;;;8.47;71.40
13414;BME280;6778;48.136;11.386;2023-04-02T05:38:44;94809.63;;;8.46;71.38
13414;BME280;6778;48.136;11.386;2023-04-02T05:41:25;94809.50;;;8.41;71.33
13414;BME280;6778;48.136;11.386;2023-04-02T05:44:10;94814.50;;;8.42;71.55
13414;BME280;6778;48.136;11.386;2023-04-02T05:46:50;94818.25;;;8.46;71.67
13414;BME280;6778;48.136;11.386;2023-04-02T05:49:32;94816.81;;;8.51;71.60
13414;BME280;6778;48.136;11.386;2023-04-02T05:52:14;94822.09;;;8.44;71.46
13414;BME280;6778;48.136;11.386;2023-04-02T05:54:52;94823.28;;;8.48;71.61
13414;BME280;6778;48.136;11.386;2023-04-02T05:57:33;94827.47;;;8.49;71.53
13414;BME280;6778;48.136;11.386;2023-04-02T06:00:38;94835.09;;;8.51;71.66
13414;BME280;6778;48.136;11.386;2023-04-02T06:03:23;94841.03;;;8.58;72.00
13414;BME280;6778;48.136;11.386;2023-04-02T06:06:00;94835.41;;;8.61;71.82
13414;BME280;6778;48.136;11.386;2023-04-02T06:08:38;94835.75;;;8.64;72.39
13414;BME280;6778;48.136;11.386;2023-04-02T06:11:19;94841.94;;;8.70;72.35
13414;BME280;6778;48.136;11.386;2023-04-02T06:13:52;94837.50;;;8.70;71.95
13414;BME280;6778;48.136;11.386;2023-04-02T06:16:29;94843.91;;;8.74;72.10
13414;BME280;6778;48.136;11.386;2023-04-02T06:19:10;94844.47;;;8.77;71.94
13414;BME280;6778;48.136;11.386;2023-04-02T06:21:44;94847.66;;;8.79;nan
13414;BME280;6778;48.136;11.386;2023-04-02T06:24:22;94852.66;;;8.80;71.58
13414;BME280;6778;48.136;11.386;2023-04-02T06:27:01;94845.19;;;8.84;71.60
13414;BME280;6778;48.136;11.386;2023-04-02T06:29:38;94852.59;;;8.87;71.46
13414;BME280;6778;48.136;11.386;2023-04-02T06:32:21;94850.59;;;8.89;71.37
13414;BME280;6778;48.136;11.386;2023-04-02T06:34:53;94855.59;;;8.90;71.42
13414;BME280;6778;48.136;11.386;2023-04-02T06:37:31;94862.16;;;8.93;71.20
13414;BME280;6778;48.136;11.386;2023-04-02T06:40:39;94856.31;;;8.97;71.14
13414;BME280;6778;48.136;11.386;2023-04-02T06:43:27;94861.69;;;9.02;70.88
13414;BME280;6778;48.136;11.386;2023-04-02T06:46:41;94873.94;;;9.02;71.02
13414;BME280;6778;48.136;11.386;2023-04-02T06:49:22;94867.84;;;9.08;70.75
13414;BME280;6778;48.136;11.386;2023-04-02T06:52:04;94876.25;;;9.10;71.09
13414;BME280;6778;48.136;11.386;2023-04-02T06:54:37;94873.81;;;9.15;70.79
13414;BME280;6778;48.136;11.386;2023-04-02T06:57:11;94881.41;;;9.17;70.72
13414;BME280;6778;48.136;11.386;2023-04-02T06:59:44;94887.38;;;9.24;70.39
13414;BME280;6778;48.136;11.386;2023-04-02T07:02:30;94889.75;;;9.25;70.35
13414;BME280;6778;48.136;11.386;2023-04-02T07:05:08;94900.78;;;9.27;70.50
13414;BME280;6778;48.136;11.386;2023-04-02T07:07:44;94897.53;;;9.32;70.32
13414;BME280;6778;48.136;11.386;2023-04-02T07:10:16;94902.09;;;9.37;70.32
13414;BME280;6778;48.136;11.386;2023-04-02T07:12:47;94899.63;;;9.42;70.32
13414;BME280;6778;48.136;11.386;2023-04-02T07:15:20;94909.00;;;9.49;70.12
13414;BME280;6778;48.136;11.386;2023-04-02T07:17:52;94908.69;;;9.57;70.24
13414;BME280;6778;48.136;11.386;2023-04-02T07:20:30;94914.84;;;9.63;69.99
13414;BME280;6778;48.136;11.386;2023-04-02T07:23:06;94916.78;;;9.68;69.75
13414;BME280;6778;48.136;11.386;2023-04-02T07:25:36;94908.28;;;9.72;69.79
13414;BME280;6778;48.136;11.386;2023-04-02T07:28:07;94917.00;;;9.84;69.66
13414;BME280;6778;48.136;11.386;2023-04-02T07:30:37;94913.91;;;9.88;69.45
13414;BME280;6778;48.136;11.386;2023-04-02T07:33:12;94923.16;;;9.90;68.86
13414;BME280;6778;48.136;11.386;2023-04-02T07:35:45;94918.28;;;9.94;68.77
13414;BME280;6778;48.136;11.386;2023-04-02T07:38:16;94919.78;;;10.01;68.57
13414;BME280;6778;48.136;11.386;2023-04-02T07:40:47;94922.19;;;10.03;68.45
13414;BME280;6778;48.136;11.386;2023-04-02T07:43:17;94922.53;;;10.06;68.40
13414;BME280;6778;48.136;11.386;2023-04-02T07:45:49;94926.22;;;10.17;68.55
13414;BME280;6778;48.136;11.386;2023-04-02T07:48:19;94933.03;;;10.18;68.17
13414;BME280;6778;48.136;11.386;2023-04-02T07:50:52;94935.19;;;10.21;68.11
13414;BME280;6778;48.136;11.386;2023-04-02T07:53:26;94934.34;;;10.27;68.23
13414;BME280;6778;48.136;11.386;2023-04-02T07:55:59;94945.28;;;10.36;67.99
13414;BME280;6778;48.136;11.386;2023-04-02T07:58:31;94940.31;;;10.46;67.81
13414;BME280;6778;48.136;11.386;2023-04-02T08:01:02;94951.63;;;10.58;67.79
13414;BME280;6778;48.136;11.386;2023-04-02T08:03:32;94951.28;;;10.66;66.96
13414;BME280;6778;48.136;11.386;2023-04-02T08:06:05;94953.75;;;10.61;66.70
13414;BME280;6778;48.136;11.386;2023-04-02T08:08:35;94961.28;;;10.58;66.67
13414;BME280;6778;48.136;11.386;2023-04-02T08:11:05;94964.59;;;10.65;66.57
13414;BME280;6778;48.136;11.386;2023-04-02T08:13:36;94957.53;;;10.65;66.50
13414;BME280;6778;48.136;11.386;2023-04-02T08:16:07;94965.16;;;10.67;66.38
13414;BME280;6778;48.136;11.386;2023-04-02T08:18:38;94969.16;;;10.70;66.04
13414;BME280;6778;48.136;11.386;2023-04-02T08:21:10;94961.75;;;10.66;66.34
13414;BME280;6778;48.136;11.386;2023-04-02T08:23:43;94961.53;;;10.68;66.51
13414;BME280;6778;48.136;11.386;2023-04-02T08:26:16;94969.75;;;10.72;66.38
13414;BME280;6778;48.136;11.386;2023-04-02T08:28:47;94975.78;;;10.72;66.26
13414;BME280;6778;48.136;11.386;2023-04-02T08:31:17;94971.56;;;10.71;66.21
13414;BME280;6778;48.136;11.386;2023-04-02T08:33:47;94979.19;;;10.73;66.32
13414;BME280;6778;48.136;11.386;2023-04-02T08:36:26;94987.63;;;10.75;66.11
13414;BME280;6778;48.136;11.386;2023-04-02T08:38:57;94982.75;;;10.78;66.04
13414;BME280;6778;48.136;11.386;2023-04-02T08:41:28;94980.13;;;10.78;65.79
13414;BME280;6778;48.136;11.386;2023-04-02T08:44:10;94988.91;;;10.84;65.85
13414;BME280;6778;48.136;11.386;2023-04-02T08:46:48;94983.53;;;10.90;65.76
13414;BME280;6778;48.136;11.386;2023-04-02T08:49:28;94983.53;;;11.02;65.74
13414;BME280;6778;48.136;11.386;2023-04-02T08:52:02;94986.19;;;11.14;65.52
13414;BME280;6778;48.136;11.386;2023-04-02T08:54:34;94985.16;;;11.27;65.26
13414;BME280;6778;48.136;11.386;2023-04-02T08:57:20;94987.97;;;11.37;65.14
13414;BME280;6778;48.136;11.386;2023-04-02T09:00:00;94995.19;;;11.41;64.70
13414;BME280;6778;48.136;11.386;2023-04-02T09:02:39;94995.97;;;11.54;64.44
13414;BME280;6778;48.136;11.386;2023-04-02T09:05:18;95008.50;;;11.63;64.35
13414;BME280;6778;48.136;11.386;2023-04-02T09:07:57;95004.16;;;11.69;63.96
13414;BME280;6778;48.136;11.386;2023-04-02T09:10:36;95010.66;;;11.66;63.65
13414;BME280;6778;48.136;11.386;2023-04-02T09:13:17;95019.66;;;11.70;63.59
13414;BME280;6778;48.136;11.386;2023-04-02T09:15:53;95016.72;;;11.67;63.73
13414;BME280;6778;48.136;11.386;2023-04-02T09:18:27;95011.69;;;11.65;63.80
13414;BME280;6778;48.136;11.386;2023-04-02T09:21:04;95014.44;;;11.82;63.96
13414;BME280;6778;48.136;11.386;2023-04-02T09:23:46;95014.53;;;11.87;63.48
13414;BME280;6778;48.136;11.386;2023-04-02T09:26:20;95026.50;;;11.95;63.02
13414;BME280;6778;48.136;11.386;2023-04-02T09:29:01;95032.03;;;12.10;62.38
13414;BME280;6778;48.136;11.386;2023-04-02T09:31:39;95023.59;;;12.20;61.66
13414;BME280;6778;48.136;11.386;2023-04-02T09:34:28;95031.75;;;12.35;61.05
13414;BME280;6778;48.136;11.386;2023-04-02T09:37:07;95032.50;;;12.47;60.38
13414;BME280;6778;48.136;11.386;2023-04-02T09:39:40;95035.84;;;12.60;60.18
13414;BME280;6778;48.136;11.386;2023-04-02T09:42:29;95037.00;;;12.64;59.80
13414;BME280;6778;48.136;11.386;2023-04-02T09:45:13;95032.22;;;12.61;59.79
13414;BME280;6778;48.136;11.386;2023-04-02T09:47:43;95035.50;;;12.84;59.98
13414;BME280;6778;48.136;11.386;2023-04-02T09:50:24;95042.47;;;13.07;59.00
13414;BME280;6778;48.136;11.386;2023-04-02T09:52:55;95027.69;;;13.35;58.51
13414;BME280;6778;48.136;11.386;2023-04-02T09:55:28;95027.72;;;14.17;57.58
13414;BME280;6778;48.136;11.386;2023-04-02T09:58:11;95033.47;;;14.85;55.05
13414;BME280;6778;48.136;11.386;2023-04-02T10:00:50;95025.38;;;14.97;54.43
13414;BME280;6778;48.136;11.386;2023-04-02T10:03:24;95036.34;;;14.84;54.55
13414;BME280;6778;48.136;11.386;2023-04-02T10:06:07;95040.06;;;14.61;54.49
13414;BME280;6778;48.136;11.386;2023-04-02T10:08:40;95041.13;;;14.38;54.58
13414;BME280;6778;48.136;11.386;2023-04-02T10:11:17;95035.59;;;15.20;54.34
13414;BME280;6778;48.136;11.386;2023-04-02T10:13:56;95041.81;;;15.41;52.52
13414;BME280;6778;48.136;11.386;2023-04-02T10:16:32;95037.66;;;15.50;51.58
13414;BME280;6778;48.136;11.386;2023-04-02T10:19:10;95049.41;;;15.33;51.56
13414;BME280;6778;48.136;11.386;2023-04-02T10:21:47;95042.06;;;15.72;51.07
13414;BME280;6778;48.136;11.386;2023-04-02T10:24:18;95041.63;;;15.85;50.07
13414;BME280;6778;48.136;11.386;2023-04-02T10:27:03;95042.94;;;15.88;50.33
13414;BME280;6778;48.136;11.386;2023-04-02T10:32:39;95049.69;;;15.31;49.46
13414;BME280;6778;48.136;11.386;2023-04-02T10:35:31;95045.56;;;15.13;49.74
13414;BME280;6778;48.136;11.386;2023-04-02T10:38:26;95049.63;;;14.94;49.82
13414;BME280;6778;48.136;11.386;2023-04-02T10:41:10;95046.66;;;14.85;49.61
13414;BME280;6778;48.136;11.386;2023-04-02T10:43:58;95049.94;;;14.70;50.20
13414;BME280;6778;48.136;11.386;2023-04-02T10:46:57;95050.66;;;14.66;50.90
13414;BME280;6778;48.136;11.386;2023-04-02T10:49:39;95043.63;;;14.71;50.84
13414;BME280;6778;48.136;11.386;2023-04-02T10:52:17;95056.00;;;14.71;51.05
13414;BME280;6778;48.136;11.386;2023-04-02T10:54:50;95054.44;;;14.75;51.45
13414;BME280;6778;48.136;11.386;2023-04-02T10:57:29;95054.44;;;14.75;51.88
13414;BME280;6778;48.136;11.386;2023-04-02T11:00:17;95058.91;;;14.74;52.32
13414;BME280;6778;48.136;11.386;2023-04-02T11:02:53;95062.06;;;14.71;52.75
13414;BME280;6778;48.136;11.386;2023-04-02T11:05:31;95068.94;;;14.72;53.34
13414;BME280;6778;48.136;11.386;2023-04-02T11:08:15;95069.06;;;14.61;53.98
13414;BME280;6778;48.136;11.386;2023-04-02T11:10:51;95075.56;;;14.53;54.82
13414;BME280;6778;48.136;11.386;2023-04-02T11:13:30;95078.41;;;14.46;55.24
13414;BME280;6778;48.136;11.386;2023-04-02T11:16:05;95080.94;;;14.41;55.96
13414;BME280;6778;48.136;11.386;2023-04-02T11:18:36;95074.03;;;14.57;56.97
13414;BME280;6778;48.136;11.386;2023-04-02T11:21:06;95079.47;;;14.72;56.26
13414;BME280;6778;48.136;11.386;2023-04-02T11:23:53;95081.97;;;14.84;55.30
13414;BME280;6778;48.136;11.386;2023-04-02T11:26:40;95086.03;;;14.97;54.15
13414;BME280;6778;48.136;11.386;2023-04-02T11:29:21;95082.72;;;15.07;53.75
13414;BME280;6778;48.136;11.386;2023-04-02T11:32:22;95085.72;;;15.20;53.26
13414;BME280;6778;48.136;11.386;2023-04-02T11:34:59;95086.41;;;15.38;52.32
13414;BME280;6778;48.136;11.386;2023-04-02T11:37:36;95083.31;;;15.51;52.56
13414;BME280;6778;48.136;11.386;2023-04-02T11:49:41;95093.88;;;16.30;51.55
13414;BME280;6778;48.136;11.386;2023-04-02T11:52:28;95089.91;;;16.28;51.44
13414;BME280;6778;48.136;11.386;2023-04-02T11:55:04;95094.34;;;16.17;51.82
13414;BME280;6778;48.136;11.386;2023-04-02T11:58:09;95095.03;;;15.97;51.73
13414;BME280;6778;48.136;11.386;2023-04-02T12:10:20;95099.59;;;16.12;51.54
13414;BME280;6778;48.136;11.386;2023-04-02T12:12:51;95095.25;;;15.91;51.73
13414;BME280;6778;48.136;11.386;2023-04-02T12:15:32;95111.41;;;15.94;52.24
13414;BME280;6778;48.136;11.386;2023-04-02T12:18:14;95107.50;;;16.07;51.76
13414;BME280;6778;48.136;11.386;2023-04-02T12:20:49;95113.81;;;16.01;51.59
13414;BME280;6778;48.136;11.386;2023-04-02T12:23:27;95116.16;;;15.92;51.47
13414;BME280;6778;48.136;11.386;2023-04-02T12:26:00;95113.50;;;15.97;51.38
13414;BME280;6778;48.136;11.386;2023-04-02T12:28:33;95109.69;;;15.78;50.95
13414;BME280;6778;48.136;11.386;2023-04-02T12:31:11;95114.91;;;15.68;51.50
13414;BME280;6778;48.136;11.386;2023-04-02T12:33:44;95114.72;;;15.47;51.30
13414;BME280;6778;48.136;11.386;2023-04-02T12:36:18;95112.22;;;15.63;51.46
13414;BME280;6778;48.136;11.386;2023-04-02T12:38:53;95119.00;;;15.53;51.29
13414;BME280;6778;48.136;11.386;2023-04-02T12:41:26;95118.69;;;15.45;52.30
13414;BME280;6778;48.136;11.386;2023-04-02T12:43:59;95119.34;;;15.62;51.89
13414;BME280;6778;48.136;11.386;2023-04-02T12:46:33;95123.72;;;15.78;51.85
13414;BME280;6778;48.136;11.386;2023-04-02T12:49:05;95113.13;;;15.73;51.11
13414;BME280;6778;48.136;11.386;2023-04-02T12:51:37;95115.22;;;15.76;50.65
13414;BME280;6778;48.136;11.386;2023-04-02T12:54:14;95117.09;;;15.76;51.46
13414;BME280;6778;48.136;11.386;2023-04-02T12:56:47;95121.88;;;15.84;51.88
13414;BME280;6778;48.136;11.386;2023-04-02T12:59:27;95126.56;;;15.72;51.90
13414;BME280;6778;48.136;11.386;2023-04-02T13:02:00;95124.06;;;15.60;52.33
13414;BME280;6778;48.136;11.386;2023-04-02T13:04:30;95132.66;;;15.45;53.23
13414;BME280;6778;48.136;11.386;2023-04-02T13:07:00;95130.25;;;15.12;54.20
13414;BME280;6778;48.136;11.386;2023-04-02T13:09:41;95127.34;;;14.86;55.00
13414;BME280;6778;48.136;11.386;2023-04-02T13:12:30;95125.09;;;14.73;56.03
13414;BME280;6778;48.136;11.386;2023-04-02T13:15:04;95129.94;;;14.59;56.88
13414;BME280;6778;48.136;11.386;2023-04-02T13:17:39;95121.09;;;14.48;57.73
13414;BME280;6778;48.136;11.386;2023-04-02T13:20:28;95129.59;;;14.34;58.25
13414;BME280;6778;48.136;11.386;2023-04-02T13:23:00;95124.88;;;14.36;59.07
13414;BME280;6778;48.136;11.386;2023-04-02T13:25:35;95135.19;;;14.37;59.07
13414;BME280;6778;48.136;11.386;2023-04-02T13:28:08;95129.91;;;14.37;59.55
13414;BME280;6778;48.136;11.386;2023-04-02T13:30:38;95135.66;;;14.34;60.00
13414;BME280;6778;48.136;11.386;2023-04-02T13:33:09;95138.66;;;14.21;61.19
13414;BME280;6778;48.136;11.386;2023-04-02T13:35:39;95138.09;;;14.19;62.36
13414;BME280;6778;48.136;11.386;2023-04-02T13:38:09;95138.28;;;14.12;64.08
13414;BME280;6778;48.136;11.386;2023-04-02T13:40:43;95142.44;;;14.08;65.25
13414;BME280;6778;48.136;11.386;2023-04-02T13:43:17;95144.59;;;13.94;66.25
13414;BME280;6778;48.136;11.386;2023-04-02T13:45:50;95144.56;;;13.89;67.33
13414;BME280;6778;48.136;11.386;2023-04-02T13:48:22;95148.13;;;13.83;67.41
13414;BME280;6778;48.136;11.386;2023-04-02T13:50:55;95153.56;;;13.77;67.48
13414;BME280;6778;48.136;11.386;2023-04-02T13:53:29;95154.13;;;13.79;67.79
13414;BME280;6778;48.136;11.386;2023-04-02T13:56:05;95160.59;;;13.71;68.07
13414;BME280;6778;48.136;11.386;2023-04-02T13:58:36;95159.13;;;13.47;67.96
13414;BME280;6778;48.136;11.386;2023-04-02T14:01:07;95162.84;;;13.34;68.39
13414;BME280;6778;48.136;11.386;2023-04-02T14:03:38;95166.47;;;13.28;68.96
13414;BME280;6778;48.136;11.386;2023-04-02T14:06:16;95171.19;;;13.14;68.95
13414;BME280;6778;48.136;11.386;2023-04-02T14:08:58;95172.13;;;13.08;69.43
13414;BME280;6778;48.136;11.386;2023-04-02T14:11:44;95173.50;;;12.99;69.23
13414;BME280;6778;48.136;11.386;2023-04-02T14:14:36;95180.50;;;12.93;69.20
13414;BME280;6778;48.136;11.386;2023-04-02T14:17:21;95182.59;;;12.79;69.85
13414;BME280;6778;48.136;11.386;2023-04-02T14:20:11;95183.81;;;12.60;70.45
13414;BME280;6778;48.136;11.386;2023-04-02T14:23:00;95190.22;;;12.52;71.13
13414;BME280;6778;48.136;11.386;2023-04-02T14:25:42;95192.41;;;12.44;71.60
13414;BME280;6778;48.136;11.386;2023-04-02T14:28:27;95194.13;;;12.38;72.39
13414;BME280;6778;48.136;11.386;2023-04-02T14:31:13;95200.78;;;12.29;72.91
13414;BME280;6778;48.136;11.386;2023-04-02T14:33:56;95196.91;;;12.20;73.26